<?xml version="1.0" encoding="UTF-8" standalone="no" ?>
<gpx xmlns="http://www.topografix.com/GPX/1/1" xmlns:xsi="http://www.w3.org/2001/XMLSchema-instance" xsi:schemaLocation="http://www.topografix.com/GPX/1/1 http://www.topografix.com/GPX/1/1/gpx.xsd" version="1.1" creator="VisuGPX - https://www.visugpx.com">
  <metadata>
    <name>Sederon- J2 apm</name>
    <desc><![CDATA[Sederon- J2 apm ccccccccccccccccccccccccccccccccccccccccccccccccccccccccccccccccccccccc]]></desc>
  </metadata>
  <trk>
    <name><![CDATA[9257125-Sederon- J2 apm]]></name>
    <trkseg>
      <trkpt lat="44.20294" lon="5.50331">
        <ele>1200</ele>
        <time>2018-10-29T10:59:28Z</time>
      </trkpt>
      <trkpt lat="44.20385" lon="5.50377">
        <ele>1209</ele>
        <time>2018-10-29T11:00:28Z</time>
      </trkpt>
      <trkpt lat="44.20411" lon="5.50359">
        <ele>1205</ele>
        <time>2018-10-29T11:01:28Z</time>
      </trkpt>
      <trkpt lat="44.20398" lon="5.503">
        <ele>1204</ele>
        <time>2018-10-29T11:02:28Z</time>
      </trkpt>
      <trkpt lat="44.20318" lon="5.5005">
        <ele>1205</ele>
        <time>2018-10-29T11:03:28Z</time>
      </trkpt>
      <trkpt lat="44.20195" lon="5.49793">
        <ele>1193</ele>
        <time>2018-10-29T11:04:28Z</time>
      </trkpt>
      <trkpt lat="44.20155" lon="5.4952">
        <ele>1159</ele>
        <time>2018-10-29T11:05:28Z</time>
      </trkpt>
      <trkpt lat="44.20073" lon="5.49282">
        <ele>1180</ele>
        <time>2018-10-29T11:06:28Z</time>
      </trkpt>
      <trkpt lat="44.20102" lon="5.49116">
        <ele>1173</ele>
        <time>2018-10-29T11:07:28Z</time>
      </trkpt>
      <trkpt lat="44.20073" lon="5.48933">
        <ele>1173</ele>
        <time>2018-10-29T11:08:28Z</time>
      </trkpt>
      <trkpt lat="44.20054" lon="5.48777">
        <ele>1173</ele>
        <time>2018-10-29T11:09:28Z</time>
      </trkpt>
      <trkpt lat="44.20031" lon="5.48603">
        <ele>1175</ele>
        <time>2018-10-29T11:10:28Z</time>
      </trkpt>
      <trkpt lat="44.19957" lon="5.48489">
        <ele>1178</ele>
        <time>2018-10-29T11:11:28Z</time>
      </trkpt>
      <trkpt lat="44.19954" lon="5.48371">
        <ele>1192</ele>
        <time>2018-10-29T11:12:28Z</time>
      </trkpt>
      <trkpt lat="44.19859" lon="5.48313">
        <ele>1180</ele>
        <time>2018-10-29T11:13:28Z</time>
      </trkpt>
      <trkpt lat="44.19776" lon="5.48259">
        <ele>1175</ele>
        <time>2018-10-29T11:14:28Z</time>
      </trkpt>
      <trkpt lat="44.1972" lon="5.4817">
        <ele>1170</ele>
        <time>2018-10-29T11:15:28Z</time>
      </trkpt>
      <trkpt lat="44.19714" lon="5.4807">
        <ele>1157</ele>
        <time>2018-10-29T11:16:28Z</time>
      </trkpt>
      <trkpt lat="44.19961" lon="5.47812">
        <ele>1152</ele>
        <time>2018-10-29T11:17:28Z</time>
      </trkpt>
      <trkpt lat="44.20042" lon="5.47789">
        <ele>1161</ele>
        <time>2018-10-29T11:18:28Z</time>
      </trkpt>
      <trkpt lat="44.20117" lon="5.4768">
        <ele>1157</ele>
        <time>2018-10-29T11:19:28Z</time>
      </trkpt>
      <trkpt lat="44.20106" lon="5.47601">
        <ele>1148</ele>
        <time>2018-10-29T11:20:28Z</time>
      </trkpt>
      <trkpt lat="44.20212" lon="5.47499">
        <ele>1173</ele>
        <time>2018-10-29T11:21:28Z</time>
      </trkpt>
      <trkpt lat="44.2021" lon="5.47384">
        <ele>1175</ele>
        <time>2018-10-29T11:22:28Z</time>
      </trkpt>
      <trkpt lat="44.2019" lon="5.47335">
        <ele>1171</ele>
        <time>2018-10-29T11:23:28Z</time>
      </trkpt>
      <trkpt lat="44.20203" lon="5.47192">
        <ele>1183</ele>
        <time>2018-10-29T11:24:28Z</time>
      </trkpt>
      <trkpt lat="44.20186" lon="5.47075">
        <ele>1192</ele>
        <time>2018-10-29T11:25:28Z</time>
      </trkpt>
      <trkpt lat="44.20151" lon="5.46998">
        <ele>1198</ele>
        <time>2018-10-29T11:26:28Z</time>
      </trkpt>
      <trkpt lat="44.20049" lon="5.46922">
        <ele>1188</ele>
        <time>2018-10-29T11:27:28Z</time>
      </trkpt>
      <trkpt lat="44.20085" lon="5.46713">
        <ele>1191</ele>
        <time>2018-10-29T11:28:28Z</time>
      </trkpt>
      <trkpt lat="44.2017" lon="5.46618">
        <ele>1192</ele>
        <time>2018-10-29T11:29:28Z</time>
      </trkpt>
      <trkpt lat="44.20343" lon="5.4658">
        <ele>1216</ele>
        <time>2018-10-29T11:30:28Z</time>
      </trkpt>
      <trkpt lat="44.20351" lon="5.46445">
        <ele>1206</ele>
        <time>2018-10-29T11:31:28Z</time>
      </trkpt>
      <trkpt lat="44.20385" lon="5.46345">
        <ele>1200</ele>
        <time>2018-10-29T11:32:28Z</time>
      </trkpt>
      <trkpt lat="44.20464" lon="5.46284">
        <ele>1198</ele>
        <time>2018-10-29T11:33:28Z</time>
      </trkpt>
      <trkpt lat="44.20508" lon="5.46154">
        <ele>1179</ele>
        <time>2018-10-29T11:34:28Z</time>
      </trkpt>
      <trkpt lat="44.20491" lon="5.46151">
        <ele>1177</ele>
        <time>2018-10-29T11:35:28Z</time>
      </trkpt>
      <trkpt lat="44.2052" lon="5.46139">
        <ele>1177</ele>
        <time>2018-10-29T11:36:28Z</time>
      </trkpt>
      <trkpt lat="44.20526" lon="5.46167">
        <ele>1182</ele>
        <time>2018-10-29T11:37:28Z</time>
      </trkpt>
      <trkpt lat="44.20535" lon="5.46199">
        <ele>1187</ele>
        <time>2018-10-29T11:38:28Z</time>
      </trkpt>
      <trkpt lat="44.20559" lon="5.46208">
        <ele>1189</ele>
        <time>2018-10-29T11:39:28Z</time>
      </trkpt>
      <trkpt lat="44.20561" lon="5.46228">
        <ele>1192</ele>
        <time>2018-10-29T11:40:28Z</time>
      </trkpt>
      <trkpt lat="44.20585" lon="5.46222">
        <ele>1192</ele>
        <time>2018-10-29T11:41:28Z</time>
      </trkpt>
      <trkpt lat="44.20597" lon="5.46248">
        <ele>1197</ele>
        <time>2018-10-29T11:42:28Z</time>
      </trkpt>
      <trkpt lat="44.20627" lon="5.46248">
        <ele>1198</ele>
        <time>2018-10-29T11:43:28Z</time>
      </trkpt>
      <trkpt lat="44.20636" lon="5.46228">
        <ele>1196</ele>
        <time>2018-10-29T11:44:28Z</time>
      </trkpt>
      <trkpt lat="44.20668" lon="5.46248">
        <ele>1201</ele>
        <time>2018-10-29T11:45:28Z</time>
      </trkpt>
      <trkpt lat="44.20692" lon="5.46259">
        <ele>1202</ele>
        <time>2018-10-29T11:46:28Z</time>
      </trkpt>
      <trkpt lat="44.20721" lon="5.46262">
        <ele>1202</ele>
        <time>2018-10-29T11:47:28Z</time>
      </trkpt>
      <trkpt lat="44.20749" lon="5.46272">
        <ele>1203</ele>
        <time>2018-10-29T11:48:28Z</time>
      </trkpt>
      <trkpt lat="44.20771" lon="5.4629">
        <ele>1205</ele>
        <time>2018-10-29T11:49:28Z</time>
      </trkpt>
      <trkpt lat="44.20782" lon="5.46318">
        <ele>1209</ele>
        <time>2018-10-29T11:50:28Z</time>
      </trkpt>
      <trkpt lat="44.20795" lon="5.46342">
        <ele>1212</ele>
        <time>2018-10-29T11:51:28Z</time>
      </trkpt>
      <trkpt lat="44.20818" lon="5.46372">
        <ele>1215</ele>
        <time>2018-10-29T11:52:28Z</time>
      </trkpt>
      <trkpt lat="44.20857" lon="5.46384">
        <ele>1213</ele>
        <time>2018-10-29T11:53:28Z</time>
      </trkpt>
      <trkpt lat="44.20853" lon="5.46479">
        <ele>1227</ele>
        <time>2018-10-29T11:54:28Z</time>
      </trkpt>
      <trkpt lat="44.2084" lon="5.4657">
        <ele>1243</ele>
        <time>2018-10-29T11:55:28Z</time>
      </trkpt>
      <trkpt lat="44.20817" lon="5.46645">
        <ele>1261</ele>
        <time>2018-10-29T11:56:28Z</time>
      </trkpt>
      <trkpt lat="44.20802" lon="5.46708">
        <ele>1273</ele>
        <time>2018-10-29T11:57:28Z</time>
      </trkpt>
      <trkpt lat="44.20773" lon="5.46715">
        <ele>1280</ele>
        <time>2018-10-29T11:58:28Z</time>
      </trkpt>
      <trkpt lat="44.20759" lon="5.46721">
        <ele>1284</ele>
        <time>2018-10-29T11:59:28Z</time>
      </trkpt>
      <trkpt lat="44.20777" lon="5.46747">
        <ele>1283</ele>
        <time>2018-10-29T12:00:28Z</time>
      </trkpt>
      <trkpt lat="44.20761" lon="5.46765">
        <ele>1289</ele>
        <time>2018-10-29T12:01:28Z</time>
      </trkpt>
      <trkpt lat="44.20753" lon="5.46753">
        <ele>1290</ele>
        <time>2018-10-29T12:02:28Z</time>
      </trkpt>
      <trkpt lat="44.20739" lon="5.46765">
        <ele>1294</ele>
        <time>2018-10-29T12:03:28Z</time>
      </trkpt>
      <trkpt lat="44.20725" lon="5.46779">
        <ele>1297</ele>
        <time>2018-10-29T12:04:28Z</time>
      </trkpt>
      <trkpt lat="44.20717" lon="5.46779">
        <ele>1299</ele>
        <time>2018-10-29T12:05:28Z</time>
      </trkpt>
      <trkpt lat="44.207" lon="5.4678">
        <ele>1302</ele>
        <time>2018-10-29T12:06:28Z</time>
      </trkpt>
      <trkpt lat="44.20677" lon="5.46773">
        <ele>1306</ele>
        <time>2018-10-29T12:07:28Z</time>
      </trkpt>
      <trkpt lat="44.20658" lon="5.46812">
        <ele>1314</ele>
        <time>2018-10-29T12:08:28Z</time>
      </trkpt>
      <trkpt lat="44.20643" lon="5.46847">
        <ele>1319</ele>
        <time>2018-10-29T12:09:28Z</time>
      </trkpt>
      <trkpt lat="44.20621" lon="5.46897">
        <ele>1326</ele>
        <time>2018-10-29T12:10:28Z</time>
      </trkpt>
      <trkpt lat="44.20588" lon="5.46935">
        <ele>1336</ele>
        <time>2018-10-29T12:11:28Z</time>
      </trkpt>
      <trkpt lat="44.20557" lon="5.46975">
        <ele>1339</ele>
        <time>2018-10-29T12:12:28Z</time>
      </trkpt>
      <trkpt lat="44.20535" lon="5.46999">
        <ele>1343</ele>
        <time>2018-10-29T12:13:28Z</time>
      </trkpt>
      <trkpt lat="44.20518" lon="5.47061">
        <ele>1345</ele>
        <time>2018-10-29T12:14:28Z</time>
      </trkpt>
      <trkpt lat="44.20516" lon="5.47098">
        <ele>1346</ele>
        <time>2018-10-29T12:15:28Z</time>
      </trkpt>
      <trkpt lat="44.20523" lon="5.47117">
        <ele>1348</ele>
        <time>2018-10-29T12:16:28Z</time>
      </trkpt>
      <trkpt lat="44.20514" lon="5.47134">
        <ele>1351</ele>
        <time>2018-10-29T12:17:28Z</time>
      </trkpt>
      <trkpt lat="44.20504" lon="5.47157">
        <ele>1354</ele>
        <time>2018-10-29T12:18:28Z</time>
      </trkpt>
      <trkpt lat="44.20504" lon="5.47222">
        <ele>1353</ele>
        <time>2018-10-29T12:19:28Z</time>
      </trkpt>
      <trkpt lat="44.20519" lon="5.47275">
        <ele>1351</ele>
        <time>2018-10-29T12:20:28Z</time>
      </trkpt>
      <trkpt lat="44.20549" lon="5.47368">
        <ele>1357</ele>
        <time>2018-10-29T12:21:28Z</time>
      </trkpt>
      <trkpt lat="44.20587" lon="5.47433">
        <ele>1381</ele>
        <time>2018-10-29T12:22:28Z</time>
      </trkpt>
      <trkpt lat="44.20627" lon="5.47572">
        <ele>1390</ele>
        <time>2018-10-29T12:23:28Z</time>
      </trkpt>
      <trkpt lat="44.20667" lon="5.47779">
        <ele>1413</ele>
        <time>2018-10-29T12:24:28Z</time>
      </trkpt>
      <trkpt lat="44.20795" lon="5.47873">
        <ele>1396</ele>
        <time>2018-10-29T12:25:28Z</time>
      </trkpt>
      <trkpt lat="44.20923" lon="5.47917">
        <ele>1385</ele>
        <time>2018-10-29T12:26:28Z</time>
      </trkpt>
      <trkpt lat="44.21012" lon="5.4794">
        <ele>1373</ele>
        <time>2018-10-29T12:27:28Z</time>
      </trkpt>
      <trkpt lat="44.21095" lon="5.47949">
        <ele>1357</ele>
        <time>2018-10-29T12:28:28Z</time>
      </trkpt>
      <trkpt lat="44.21196" lon="5.4792">
        <ele>1325</ele>
        <time>2018-10-29T12:29:28Z</time>
      </trkpt>
      <trkpt lat="44.21264" lon="5.47861">
        <ele>1302</ele>
        <time>2018-10-29T12:30:28Z</time>
      </trkpt>
      <trkpt lat="44.21222" lon="5.47976">
        <ele>1300</ele>
        <time>2018-10-29T12:31:28Z</time>
      </trkpt>
      <trkpt lat="44.21125" lon="5.48097">
        <ele>1292</ele>
        <time>2018-10-29T12:32:28Z</time>
      </trkpt>
      <trkpt lat="44.21015" lon="5.48131">
        <ele>1286</ele>
        <time>2018-10-29T12:33:28Z</time>
      </trkpt>
      <trkpt lat="44.20869" lon="5.48119">
        <ele>1281</ele>
        <time>2018-10-29T12:34:28Z</time>
      </trkpt>
      <trkpt lat="44.20781" lon="5.48126">
        <ele>1260</ele>
        <time>2018-10-29T12:35:28Z</time>
      </trkpt>
      <trkpt lat="44.20883" lon="5.4816">
        <ele>1258</ele>
        <time>2018-10-29T12:36:28Z</time>
      </trkpt>
      <trkpt lat="44.20986" lon="5.48191">
        <ele>1253</ele>
        <time>2018-10-29T12:37:28Z</time>
      </trkpt>
      <trkpt lat="44.21048" lon="5.48243">
        <ele>1237</ele>
        <time>2018-10-29T12:38:28Z</time>
      </trkpt>
      <trkpt lat="44.21142" lon="5.48216">
        <ele>1239</ele>
        <time>2018-10-29T12:39:28Z</time>
      </trkpt>
      <trkpt lat="44.21109" lon="5.48241">
        <ele>1236</ele>
        <time>2018-10-29T12:40:28Z</time>
      </trkpt>
      <trkpt lat="44.21048" lon="5.48285">
        <ele>1221</ele>
        <time>2018-10-29T12:41:28Z</time>
      </trkpt>
      <trkpt lat="44.20976" lon="5.48256">
        <ele>1228</ele>
        <time>2018-10-29T12:42:28Z</time>
      </trkpt>
      <trkpt lat="44.20898" lon="5.48276">
        <ele>1213</ele>
        <time>2018-10-29T12:43:28Z</time>
      </trkpt>
      <trkpt lat="44.20856" lon="5.48283">
        <ele>1203</ele>
        <time>2018-10-29T12:44:28Z</time>
      </trkpt>
      <trkpt lat="44.20905" lon="5.48339">
        <ele>1188</ele>
        <time>2018-10-29T12:45:28Z</time>
      </trkpt>
      <trkpt lat="44.2083" lon="5.48322">
        <ele>1181</ele>
        <time>2018-10-29T12:46:28Z</time>
      </trkpt>
      <trkpt lat="44.20783" lon="5.48294">
        <ele>1184</ele>
        <time>2018-10-29T12:47:28Z</time>
      </trkpt>
      <trkpt lat="44.20695" lon="5.48279">
        <ele>1178</ele>
        <time>2018-10-29T12:48:28Z</time>
      </trkpt>
      <trkpt lat="44.20745" lon="5.48342">
        <ele>1158</ele>
        <time>2018-10-29T12:49:28Z</time>
      </trkpt>
      <trkpt lat="44.2082" lon="5.48362">
        <ele>1162</ele>
        <time>2018-10-29T12:50:28Z</time>
      </trkpt>
      <trkpt lat="44.20882" lon="5.48404">
        <ele>1158</ele>
        <time>2018-10-29T12:51:28Z</time>
      </trkpt>
      <trkpt lat="44.20961" lon="5.48478">
        <ele>1140</ele>
        <time>2018-10-29T12:52:28Z</time>
      </trkpt>
      <trkpt lat="44.20939" lon="5.48503">
        <ele>1130</ele>
        <time>2018-10-29T12:53:28Z</time>
      </trkpt>
      <trkpt lat="44.21038" lon="5.48528">
        <ele>1125</ele>
        <time>2018-10-29T12:54:28Z</time>
      </trkpt>
      <trkpt lat="44.2117" lon="5.486">
        <ele>1104</ele>
        <time>2018-10-29T12:55:28Z</time>
      </trkpt>
      <trkpt lat="44.21213" lon="5.48664">
        <ele>1085</ele>
        <time>2018-10-29T12:56:28Z</time>
      </trkpt>
      <trkpt lat="44.21317" lon="5.48627">
        <ele>1100</ele>
        <time>2018-10-29T12:57:28Z</time>
      </trkpt>
      <trkpt lat="44.21349" lon="5.48718">
        <ele>1088</ele>
        <time>2018-10-29T12:58:28Z</time>
      </trkpt>
      <trkpt lat="44.2133" lon="5.48808">
        <ele>1078</ele>
        <time>2018-10-29T12:59:28Z</time>
      </trkpt>
      <trkpt lat="44.2148" lon="5.49026">
        <ele>1052</ele>
        <time>2018-10-29T13:00:28Z</time>
      </trkpt>
      <trkpt lat="44.21566" lon="5.48651">
        <ele>1037</ele>
        <time>2018-10-29T13:01:28Z</time>
      </trkpt>
      <trkpt lat="44.21647" lon="5.48662">
        <ele>1012</ele>
        <time>2018-10-29T13:02:28Z</time>
      </trkpt>
      <trkpt lat="44.21722" lon="5.48721">
        <ele>995</ele>
        <time>2018-10-29T13:03:28Z</time>
      </trkpt>
      <trkpt lat="44.21749" lon="5.4881">
        <ele>985</ele>
        <time>2018-10-29T13:04:28Z</time>
      </trkpt>
      <trkpt lat="44.21778" lon="5.48875">
        <ele>974</ele>
        <time>2018-10-29T13:05:28Z</time>
      </trkpt>
      <trkpt lat="44.21819" lon="5.48974">
        <ele>962</ele>
        <time>2018-10-29T13:06:28Z</time>
      </trkpt>
      <trkpt lat="44.21799" lon="5.4905">
        <ele>957</ele>
        <time>2018-10-29T13:07:28Z</time>
      </trkpt>
      <trkpt lat="44.2191" lon="5.49075">
        <ele>940</ele>
        <time>2018-10-29T13:08:28Z</time>
      </trkpt>
      <trkpt lat="44.21951" lon="5.49189">
        <ele>930</ele>
        <time>2018-10-29T13:09:28Z</time>
      </trkpt>
      <trkpt lat="44.22025" lon="5.49279">
        <ele>914</ele>
        <time>2018-10-29T13:10:28Z</time>
      </trkpt>
      <trkpt lat="44.22119" lon="5.49382">
        <ele>894</ele>
        <time>2018-10-29T13:11:28Z</time>
      </trkpt>
      <trkpt lat="44.22053" lon="5.49452">
        <ele>901</ele>
        <time>2018-10-29T13:12:28Z</time>
      </trkpt>
      <trkpt lat="44.22061" lon="5.49528">
        <ele>896</ele>
        <time>2018-10-29T13:13:28Z</time>
      </trkpt>
      <trkpt lat="44.22052" lon="5.49535">
        <ele>896</ele>
        <time>2018-10-29T13:14:28Z</time>
      </trkpt>
      <trkpt lat="44.22137" lon="5.49687">
        <ele>875</ele>
        <time>2018-10-29T13:15:28Z</time>
      </trkpt>
      <trkpt lat="44.22144" lon="5.49775">
        <ele>867</ele>
        <time>2018-10-29T13:16:28Z</time>
      </trkpt>
      <trkpt lat="44.2222" lon="5.49909">
        <ele>847</ele>
        <time>2018-10-29T13:17:28Z</time>
      </trkpt>
      <trkpt lat="44.2232" lon="5.50093">
        <ele>832</ele>
        <time>2018-10-29T13:18:28Z</time>
      </trkpt>
      <trkpt lat="44.22383" lon="5.5036">
        <ele>821</ele>
        <time>2018-10-29T13:19:28Z</time>
      </trkpt>
      <trkpt lat="44.22486" lon="5.50432">
        <ele>817</ele>
        <time>2018-10-29T13:20:28Z</time>
      </trkpt>
      <trkpt lat="44.2252" lon="5.5052">
        <ele>814</ele>
        <time>2018-10-29T13:21:28Z</time>
      </trkpt>
      <trkpt lat="44.22643" lon="5.505">
        <ele>815</ele>
        <time>2018-10-29T13:22:28Z</time>
      </trkpt>
      <trkpt lat="44.22644" lon="5.50536">
        <ele>814</ele>
        <time>2018-10-29T13:23:28Z</time>
      </trkpt>
      <trkpt lat="44.22699" lon="5.50576">
        <ele>816</ele>
        <time>2018-10-29T13:24:28Z</time>
      </trkpt>
      <trkpt lat="44.22755" lon="5.50587">
        <ele>820</ele>
        <time>2018-10-29T13:25:28Z</time>
      </trkpt>
      <trkpt lat="44.2282" lon="5.50513">
        <ele>821</ele>
        <time>2018-10-29T13:26:28Z</time>
      </trkpt>
      <trkpt lat="44.22867" lon="5.50488">
        <ele>825</ele>
        <time>2018-10-29T13:27:28Z</time>
      </trkpt>
      <trkpt lat="44.22894" lon="5.50494">
        <ele>829</ele>
        <time>2018-10-29T13:28:28Z</time>
      </trkpt>
      <trkpt lat="44.22908" lon="5.50517">
        <ele>832</ele>
        <time>2018-10-29T13:29:28Z</time>
      </trkpt>
    </trkseg>
  </trk>
</gpx>